createdAt,value
2022-09-24T00:01:43.185Z,101407.81
2022-09-24T00:03:52.157Z,101403.38
2022-09-24T00:05:53.813Z,101405.16
2022-09-24T00:07:55.254Z,101406.09
2022-09-24T00:09:56.702Z,101406.09
2022-09-24T00:11:58.209Z,101395.47
2022-09-24T00:14:00.252Z,101402.47
2022-09-24T00:16:05.879Z,101399.88
2022-09-24T00:18:07.955Z,101400.78
2022-09-24T00:20:09.559Z,101396.44
2022-09-24T00:22:11.096Z,101397.34
2022-09-24T00:24:35.039Z,101395.63
2022-09-24T00:26:51.951Z,101393.09
2022-09-24T00:28:53.381Z,101393.97
2022-09-24T00:30:58.386Z,101395.75
2022-09-24T00:32:59.904Z,101398.44
2022-09-24T00:35:01.392Z,101392.28
2022-09-24T00:37:02.955Z,101393.16
2022-09-24T00:39:05.469Z,101383.41
2022-09-24T00:41:06.990Z,101389.66
2022-09-24T00:43:41.226Z,101387.13
2022-09-24T00:45:42.680Z,101381.00
2022-09-24T00:47:44.864Z,101380.06
2022-09-24T00:49:49.309Z,101380.13
2022-09-24T00:51:52.947Z,101377.50
2022-09-24T00:53:59.179Z,101374.94
2022-09-24T00:56:03.006Z,101379.47
2022-09-24T00:58:07.224Z,101376.03
2022-09-24T01:00:09.705Z,101379.56
2022-09-24T01:02:11.980Z,101376.09
2022-09-24T01:04:16.252Z,101377.91
2022-09-24T01:06:17.716Z,101374.44
2022-09-24T01:08:20.636Z,101377.06
2022-09-24T01:10:50.953Z,101365.59
2022-09-24T01:13:02.073Z,101374.47
2022-09-24T01:15:21.494Z,101370.16
2022-09-24T01:18:07.985Z,101371.88
2022-09-24T01:20:18.447Z,101363.06
2022-09-24T01:22:41.703Z,101368.31
2022-09-24T01:25:01.906Z,101358.69
2022-09-24T01:27:26.595Z,101354.34
2022-09-24T01:29:42.191Z,101355.25
2022-09-24T01:31:48.892Z,101360.53
2022-09-24T01:33:53.575Z,101357.13
2022-09-24T01:35:59.329Z,101358.97
2022-09-24T01:38:22.967Z,101355.50
2022-09-24T01:40:27.649Z,101355.59
2022-09-24T01:42:31.170Z,101359.97
2022-09-24T01:44:34.815Z,101356.41
2022-09-24T01:46:41.290Z,101355.63
2022-09-24T01:48:42.934Z,101357.50
2022-09-24T01:50:58.662Z,101351.34
2022-09-24T01:53:07.434Z,101346.94
2022-09-24T01:55:13.782Z,101347.00
2022-09-24T01:57:22.502Z,101345.28
2022-09-24T01:59:37.729Z,101335.78
2022-09-24T02:02:18.134Z,101339.31
2022-09-24T02:04:21.571Z,101331.31
2022-09-24T02:06:33.556Z,101334.88
2022-09-24T02:08:41.072Z,101331.38
2022-09-24T02:10:49.982Z,101333.19
2022-09-24T02:12:59.604Z,101333.22
2022-09-24T02:15:17.416Z,101331.41
2022-09-24T02:17:19.265Z,101333.19
2022-09-24T02:19:29.127Z,101333.97
2022-09-24T02:21:33.321Z,101324.28
2022-09-24T02:23:38.507Z,101329.66
2022-09-24T02:25:50.610Z,101329.75
2022-09-24T02:27:52.095Z,101326.19
2022-09-24T02:29:53.575Z,101327.94
2022-09-24T02:31:57.685Z,101328.72
2022-09-24T02:34:20.576Z,101329.59
2022-09-24T02:36:24.860Z,101326.97
2022-09-24T02:38:26.328Z,101325.19
2022-09-24T02:40:28.015Z,101328.69
2022-09-24T02:42:31.371Z,101316.34
2022-09-24T02:44:34.124Z,101316.31
2022-09-24T02:46:35.613Z,101309.22
2022-09-24T02:48:37.354Z,101314.53
2022-09-24T02:50:38.777Z,101321.59
2022-09-24T02:52:40.205Z,101314.56
2022-09-24T02:54:42.599Z,101309.31
2022-09-24T02:56:44.020Z,101313.72
2022-09-24T02:58:45.491Z,101310.28
2022-09-24T03:00:46.973Z,101299.72
2022-09-24T03:02:48.591Z,101304.13
2022-09-24T03:04:50.894Z,101306.81
2022-09-24T03:06:52.403Z,101296.34
2022-09-24T03:08:54.674Z,101299.94
2022-09-24T03:10:56.235Z,101301.75
2022-09-24T03:12:58.177Z,101307.06
2022-09-24T03:14:59.599Z,101300.06
2022-09-24T03:17:01.249Z,101304.53
2022-09-24T03:19:03.157Z,101308.03
2022-09-24T03:21:10.557Z,101306.31
2022-09-24T03:23:11.997Z,101305.44
2022-09-24T03:25:14.713Z,101304.56
2022-09-24T03:27:16.257Z,101300.19
2022-09-24T03:29:37.662Z,101299.31
2022-09-24T03:31:39.188Z,101304.63
2022-09-24T03:33:43.464Z,101294.78
2022-09-24T03:35:44.927Z,101293.03
2022-09-24T03:37:49.185Z,101286.84
2022-09-24T03:39:50.851Z,101292.16
2022-09-24T03:41:52.277Z,101294.94
2022-09-24T03:43:53.994Z,101291.44
2022-09-24T03:45:55.765Z,101293.19
2022-09-24T03:47:57.195Z,101290.56
2022-09-24T03:49:58.749Z,101291.50
2022-09-24T03:52:00.186Z,101289.75
2022-09-24T03:54:01.678Z,101286.25
2022-09-24T03:56:05.610Z,101282.66
2022-09-24T03:58:07.047Z,101286.13
2022-09-24T04:00:09.247Z,101284.34
2022-09-24T04:02:11.933Z,101281.72
2022-09-24T04:04:16.248Z,101278.13
2022-09-24T04:06:22.092Z,101282.53
2022-09-24T04:08:26.320Z,101280.88
2022-09-24T04:10:28.683Z,101278.16
2022-09-24T04:12:31.120Z,101274.56
2022-09-24T04:14:32.569Z,101285.06
2022-09-24T04:16:34.145Z,101274.50
2022-09-24T04:18:39.052Z,101275.50
2022-09-24T04:20:41.627Z,101280.84
2022-09-24T04:22:43.079Z,101273.72
2022-09-24T04:24:44.650Z,101272.88
2022-09-24T04:26:46.080Z,101274.59
2022-09-24T04:28:47.512Z,101273.72
2022-09-24T04:30:49.095Z,101265.75
2022-09-24T04:32:51.535Z,101264.06
2022-09-24T04:34:52.961Z,101266.66
2022-09-24T04:36:54.377Z,101269.34
2022-09-24T04:38:57.149Z,101265.88
2022-09-24T04:41:05.381Z,101262.31
2022-09-24T04:43:07.198Z,101261.44
2022-09-24T04:45:10.113Z,101264.09
2022-09-24T04:47:11.650Z,101259.75
2022-09-24T04:49:14.191Z,101264.13
2022-09-24T04:51:17.637Z,101258.84
2022-09-24T04:53:19.424Z,101262.41
2022-09-24T04:55:21.737Z,101258.88
2022-09-24T04:57:23.394Z,101263.28
2022-09-24T04:59:24.891Z,101259.75
2022-09-24T05:01:26.719Z,101260.63
2022-09-24T05:03:28.193Z,101266.78
2022-09-24T05:05:30.477Z,101270.31
2022-09-24T05:07:31.901Z,101272.06
2022-09-24T05:09:33.552Z,101266.81
2022-09-24T05:11:35.051Z,101269.50
2022-09-24T05:13:36.478Z,101276.59
2022-09-24T05:15:42.375Z,101267.72
2022-09-24T05:17:45.268Z,101272.16
2022-09-24T05:19:46.727Z,101270.38
2022-09-24T05:21:48.587Z,101272.16
2022-09-24T05:23:50.035Z,101268.66
2022-09-24T05:26:09.975Z,101269.59
2022-09-24T05:28:11.402Z,101266.13
2022-09-24T05:30:13.329Z,101263.47
2022-09-24T05:32:17.467Z,101266.13
2022-09-24T05:34:19.111Z,101265.22
2022-09-24T05:36:20.604Z,101266.03
2022-09-24T05:38:22.032Z,101266.00
2022-09-24T05:40:42.739Z,101261.66
2022-09-24T05:42:44.202Z,101271.34
2022-09-24T05:44:49.806Z,101269.56
2022-09-24T05:46:53.581Z,101272.25
2022-09-24T05:48:55.818Z,101272.25
2022-09-24T05:50:57.354Z,101270.44
2022-09-24T05:52:58.778Z,101270.34
2022-09-24T05:55:00.226Z,101270.34
2022-09-24T05:57:01.666Z,101274.75
2022-09-24T05:59:03.525Z,101272.94
2022-09-24T06:01:05.058Z,101271.16
2022-09-24T06:03:11.929Z,101275.59
2022-09-24T06:05:13.638Z,101272.88
2022-09-24T06:07:15.056Z,101271.03
2022-09-24T06:09:16.475Z,101279.84
2022-09-24T06:11:18.790Z,101275.34
2022-09-24T06:13:21.040Z,101264.66
2022-09-24T06:15:22.687Z,101270.84
2022-09-24T06:17:24.113Z,101275.25
2022-09-24T06:19:25.588Z,101272.69
2022-09-24T06:21:27.030Z,101275.28
2022-09-24T06:23:29.229Z,101279.63
2022-09-24T06:25:31.294Z,101273.44
2022-09-24T06:27:32.774Z,101275.97
2022-09-24T06:29:34.293Z,101275.03
2022-09-24T06:31:35.831Z,101280.34
2022-09-24T06:33:38.101Z,101279.38
2022-09-24T06:35:44.457Z,101282.94
2022-09-24T06:37:45.978Z,101275.09
2022-09-24T06:39:47.438Z,101290.00
2022-09-24T06:41:50.338Z,101277.59
2022-09-24T06:43:54.570Z,101281.06
2022-09-24T06:45:57.689Z,101280.16
2022-09-24T06:48:00.995Z,101292.47
2022-09-24T06:50:02.446Z,101280.94
2022-09-24T06:52:04.867Z,101288.00
2022-09-24T06:54:06.352Z,101290.66
2022-09-24T06:56:07.869Z,101293.25
2022-09-24T06:58:12.084Z,101291.44
2022-09-24T07:00:15.488Z,101289.75
2022-09-24T07:02:17.185Z,101291.53
2022-09-24T07:04:18.672Z,101286.22
2022-09-24T07:06:20.231Z,101296.78
2022-09-24T07:08:22.508Z,101300.25
2022-09-24T07:10:25.222Z,101296.69
2022-09-24T07:12:26.810Z,101298.50
2022-09-24T07:14:28.231Z,101296.69
2022-09-24T07:16:29.716Z,101297.47
2022-09-24T07:18:31.178Z,101299.16
2022-09-24T07:20:33.590Z,101293.78
2022-09-24T07:22:43.104Z,101301.78
2022-09-24T07:24:44.822Z,101299.09
2022-09-24T07:26:46.283Z,101300.06
2022-09-24T07:28:47.804Z,101295.53
2022-09-24T07:30:57.337Z,101301.50
2022-09-24T07:32:59.070Z,101304.03
2022-09-24T07:35:00.538Z,101305.75
2022-09-24T07:37:02.051Z,101304.81
2022-09-24T07:39:03.669Z,101306.44
2022-09-24T07:41:07.956Z,101304.59
2022-09-24T07:43:13.799Z,101306.25
2022-09-24T07:45:17.349Z,101304.28
2022-09-24T07:47:18.836Z,101301.59
2022-09-24T07:49:20.333Z,101302.47
2022-09-24T07:51:27.528Z,101300.50
2022-09-24T07:53:28.960Z,101306.56
2022-09-24T07:55:30.379Z,101304.78
2022-09-24T07:57:32.020Z,101306.56
2022-09-24T07:59:33.510Z,101306.50
2022-09-24T08:01:34.994Z,101315.13
2022-09-24T08:03:36.605Z,101316.84
2022-09-24T08:05:45.592Z,101315.03
2022-09-24T08:07:55.199Z,101315.94
2022-09-24T08:09:56.760Z,101319.50
2022-09-24T08:11:58.251Z,101316.84
2022-09-24T08:14:00.618Z,101317.72
2022-09-24T08:16:03.207Z,101321.25
2022-09-24T08:18:05.698Z,101318.53
2022-09-24T08:20:07.562Z,101320.41
2022-09-24T08:22:08.980Z,101318.59
2022-09-24T08:24:10.462Z,101315.84
2022-09-24T08:26:13.056Z,101322.84
2022-09-24T08:28:16.985Z,101320.03
2022-09-24T08:30:18.614Z,101320.81
2022-09-24T08:32:20.046Z,101314.69
2022-09-24T08:34:21.596Z,101319.03
2022-09-24T08:36:23.048Z,101318.88
2022-09-24T08:38:24.466Z,101325.00
2022-09-24T08:40:30.193Z,101323.13
2022-09-24T08:42:40.089Z,101324.91
2022-09-24T08:45:07.420Z,101327.50
2022-09-24T08:47:27.272Z,101321.16
2022-09-24T08:49:35.273Z,101315.66
2022-09-24T08:51:51.176Z,101315.53
2022-09-24T08:54:10.348Z,101316.19
2022-09-24T08:56:12.519Z,101316.91
2022-09-24T08:58:44.360Z,101317.72
2022-09-24T09:00:52.043Z,101322.16
2022-09-24T09:03:03.823Z,101314.09
2022-09-24T09:05:39.487Z,101322.97
2022-09-24T09:07:54.791Z,101322.88
2022-09-24T09:10:09.721Z,101326.34
2022-09-24T09:12:17.742Z,101320.94
2022-09-24T09:14:31.175Z,101329.53
2022-09-24T09:16:50.447Z,101329.69
2022-09-24T09:18:55.939Z,101334.13
2022-09-24T09:21:10.430Z,101330.53
2022-09-24T09:23:19.280Z,101327.03
2022-09-24T09:25:28.453Z,101326.03
2022-09-24T09:27:30.048Z,101329.44
2022-09-24T09:29:31.878Z,101334.53
2022-09-24T09:31:45.880Z,101327.28
2022-09-24T09:34:14.152Z,101333.38
2022-09-24T09:36:27.074Z,101329.91
2022-09-24T09:39:04.792Z,101335.06
2022-09-24T09:41:12.051Z,101328.97
2022-09-24T09:43:14.796Z,101328.97
2022-09-24T09:45:35.193Z,101323.63
2022-09-24T09:47:43.539Z,101326.31
2022-09-24T09:49:47.285Z,101327.34
2022-09-24T09:51:49.926Z,101323.06
2022-09-24T09:53:59.444Z,101324.09
2022-09-24T09:56:04.845Z,101318.72
2022-09-24T09:58:15.379Z,101322.31
2022-09-24T10:00:32.971Z,101321.31
2022-09-24T10:02:37.645Z,101323.81
2022-09-24T10:04:41.434Z,101329.91
2022-09-24T10:06:42.868Z,101326.22
2022-09-24T10:08:44.318Z,101321.66
2022-09-24T10:10:56.812Z,101324.97
2022-09-24T10:13:09.209Z,101322.25
2022-09-24T10:15:19.047Z,101324.59
2022-09-24T10:17:28.341Z,101321.72
2022-09-24T10:19:29.891Z,101322.38
2022-09-24T10:21:36.972Z,101320.41
2022-09-24T10:23:43.897Z,101323.19
2022-09-24T10:25:51.526Z,101316.19
2022-09-24T10:28:18.692Z,101316.28
2022-09-24T10:30:36.109Z,101317.91
2022-09-24T10:32:38.280Z,101324.69
2022-09-24T10:34:39.710Z,101317.41
2022-09-24T10:36:53.618Z,101320.88
2022-09-24T10:39:21.660Z,101323.47
2022-09-24T10:41:27.354Z,101318.25
2022-09-24T10:43:28.928Z,101317.34
2022-09-24T10:45:49.640Z,101317.16
2022-09-24T10:47:57.908Z,101316.13
2022-09-24T10:50:31.539Z,101315.19
2022-09-24T10:53:13.414Z,101321.47
2022-09-24T10:55:19.249Z,101313.47
2022-09-24T10:57:39.715Z,101316.88
2022-09-24T11:00:01.101Z,101323.84
2022-09-24T11:02:17.595Z,101317.56
2022-09-24T11:04:44.039Z,101320.22
2022-09-24T11:07:07.183Z,101315.81
2022-09-24T11:09:14.564Z,101316.63
2022-09-24T11:11:21.902Z,101318.38
2022-09-24T11:13:51.702Z,101317.50
2022-09-24T11:16:16.607Z,101318.47
2022-09-24T11:18:39.117Z,101312.34
2022-09-24T11:21:03.018Z,101309.75
2022-09-24T11:23:17.073Z,101318.66
2022-09-24T11:25:52.611Z,101317.84
2022-09-24T11:28:15.704Z,101321.53
2022-09-24T11:30:24.940Z,101320.66
2022-09-24T11:32:38.404Z,101324.22
2022-09-24T11:34:39.800Z,101323.34
2022-09-24T11:36:59.374Z,101318.91
2022-09-24T11:39:25.475Z,101314.56
2022-09-24T11:42:03.968Z,101315.50
2022-09-24T11:44:16.783Z,101319.06
2022-09-24T11:46:37.011Z,101321.72
2022-09-24T11:49:08.829Z,101319.94
2022-09-24T11:51:26.410Z,101324.22
2022-09-24T11:53:59.999Z,101317.97
2022-09-24T11:56:13.182Z,101322.34
2022-09-24T11:58:24.017Z,101322.28
2022-09-24T12:00:33.867Z,101322.28
2022-09-24T12:02:40.207Z,101320.56
2022-09-24T12:04:59.174Z,101319.75
2022-09-24T12:07:12.801Z,101322.47
2022-09-24T12:09:53.716Z,101318.03
2022-09-24T12:12:16.218Z,101315.34
2022-09-24T12:14:22.746Z,101318.81
2022-09-24T12:16:28.534Z,101320.44
2022-09-24T12:18:36.623Z,101322.19
2022-09-24T12:20:52.670Z,101321.25
2022-09-24T12:23:02.245Z,101313.13
2022-09-24T12:25:04.658Z,101313.88
2022-09-24T12:27:12.406Z,101303.88
2022-09-24T12:29:54.139Z,101308.09
2022-09-24T12:32:21.408Z,101302.72
2022-09-24T12:34:50.813Z,101303.69
2022-09-24T12:37:02.522Z,101298.97
2022-09-24T12:39:12.900Z,101305.69
2022-09-24T12:41:36.428Z,101298.31
2022-09-24T12:43:47.840Z,101301.53
2022-09-24T12:45:55.641Z,101300.50
2022-09-24T12:48:00.280Z,101309.91
2022-09-24T12:50:05.018Z,101311.63
2022-09-24T12:52:18.895Z,101300.91
2022-09-24T12:54:39.060Z,101305.78
2022-09-24T12:56:41.016Z,101301.22
2022-09-24T12:58:44.831Z,101301.16
2022-09-24T13:00:47.248Z,101295.75
2022-09-24T13:02:48.838Z,101290.44
2022-09-24T13:05:12.060Z,101296.63
2022-09-24T13:07:35.241Z,101296.69
2022-09-24T13:09:41.244Z,101290.56
2022-09-24T13:11:43.286Z,101293.28
2022-09-24T13:13:44.834Z,101290.81
2022-09-24T13:15:58.070Z,101289.34
2022-09-24T13:18:11.386Z,101287.81
2022-09-24T13:20:28.242Z,101290.59
2022-09-24T13:22:30.729Z,101293.31
2022-09-24T13:24:45.761Z,101282.75
2022-09-24T13:26:47.246Z,101289.91
2022-09-24T13:28:50.979Z,101289.91
2022-09-24T13:31:10.668Z,101284.53
2022-09-24T13:33:33.377Z,101284.53
2022-09-24T13:35:43.235Z,101290.72
2022-09-24T13:37:52.522Z,101284.53
2022-09-24T13:40:03.534Z,101288.19
2022-09-24T13:42:26.482Z,101292.53
2022-09-24T13:44:39.405Z,101293.25
2022-09-24T13:46:46.483Z,101287.13
2022-09-24T13:48:59.709Z,101291.41
2022-09-24T13:51:04.277Z,101289.56
2022-09-24T13:53:31.871Z,101285.97
2022-09-24T13:55:39.785Z,101285.00
2022-09-24T13:57:45.679Z,101288.53
2022-09-24T13:59:47.171Z,101282.16
2022-09-24T14:01:48.670Z,101287.59
2022-09-24T14:03:57.258Z,101287.59
2022-09-24T14:05:59.776Z,101280.31
2022-09-24T14:08:06.448Z,101298.69
2022-09-24T14:10:14.194Z,101291.44
2022-09-24T14:12:22.284Z,101279.81
2022-09-24T14:14:26.724Z,101287.59
2022-09-24T14:16:28.243Z,101291.19
2022-09-24T14:18:30.003Z,101285.78
2022-09-24T14:20:35.174Z,101288.34
2022-09-24T14:22:41.107Z,101287.53
2022-09-24T14:24:56.424Z,101287.41
2022-09-24T14:27:00.826Z,101283.94
2022-09-24T14:29:13.244Z,101283.88
2022-09-24T14:31:14.874Z,101281.28
2022-09-24T14:33:20.179Z,101279.41
2022-09-24T14:35:33.094Z,101275.75
2022-09-24T14:37:38.708Z,101276.69
2022-09-24T14:39:43.300Z,101277.63
2022-09-24T14:41:44.859Z,101276.75
2022-09-24T14:43:58.406Z,101277.63
2022-09-24T14:46:23.716Z,101274.91
2022-09-24T14:48:31.930Z,101271.25
2022-09-24T14:50:38.873Z,101275.44
2022-09-24T14:52:40.577Z,101274.44
2022-09-24T14:54:42.037Z,101270.78
2022-09-24T14:56:43.632Z,101281.38
2022-09-24T14:58:45.109Z,101276.03
2022-09-24T15:00:50.027Z,101275.25
2022-09-24T15:03:00.026Z,101274.44
2022-09-24T15:05:06.433Z,101276.28
2022-09-24T15:07:15.994Z,101275.56
2022-09-24T15:09:26.136Z,101267.72
2022-09-24T15:11:34.405Z,101270.44
2022-09-24T15:13:37.713Z,101267.03
2022-09-24T15:15:40.008Z,101271.50
2022-09-24T15:17:41.524Z,101270.56
2022-09-24T15:19:44.024Z,101268.91
2022-09-24T15:21:50.339Z,101271.63
2022-09-24T15:23:51.829Z,101275.97
2022-09-24T15:25:53.333Z,101277.81
2022-09-24T15:27:54.965Z,101264.56
2022-09-24T15:29:59.498Z,101276.94
2022-09-24T15:32:01.370Z,101269.91
2022-09-24T15:34:02.846Z,101276.22
2022-09-24T15:36:04.531Z,101273.56
2022-09-24T15:38:06.397Z,101269.16
2022-09-24T15:40:12.737Z,101271.75
2022-09-24T15:42:19.434Z,101269.16
2022-09-24T15:44:27.119Z,101270.03
2022-09-24T15:46:30.065Z,101271.88
2022-09-24T15:48:31.566Z,101271.00
2022-09-24T15:50:33.633Z,101271.94
2022-09-24T15:52:44.750Z,101270.22
2022-09-24T15:54:46.174Z,101271.28
2022-09-24T15:56:52.330Z,101273.00
2022-09-24T15:58:54.302Z,101273.13
2022-09-24T16:00:55.765Z,101269.66
2022-09-24T16:02:57.981Z,101272.44
2022-09-24T16:05:03.507Z,101275.13
2022-09-24T16:07:05.699Z,101268.88
2022-09-24T16:09:07.156Z,101265.28
2022-09-24T16:11:09.402Z,101270.59
2022-09-24T16:13:12.165Z,101265.47
2022-09-24T16:15:15.839Z,101262.91
2022-09-24T16:17:17.273Z,101270.06
2022-09-24T16:19:18.770Z,101271.75
2022-09-24T16:21:20.447Z,101273.50
2022-09-24T16:23:22.014Z,101271.75
2022-09-24T16:25:23.735Z,101271.75
2022-09-24T16:27:25.174Z,101270.88
2022-09-24T16:29:26.708Z,101264.69
2022-09-24T16:31:28.187Z,101272.78
2022-09-24T16:33:29.678Z,101271.06
2022-09-24T16:35:31.140Z,101272.84
2022-09-24T16:37:32.559Z,101277.31
2022-09-24T16:39:34.395Z,101277.38
2022-09-24T16:41:37.796Z,101273.84
2022-09-24T16:43:39.387Z,101268.53
2022-09-24T16:45:40.824Z,101278.28
2022-09-24T16:47:42.250Z,101273.84
2022-09-24T16:49:44.414Z,101276.50
2022-09-24T16:51:45.834Z,101279.16
2022-09-24T16:53:48.952Z,101272.13
2022-09-24T16:55:50.608Z,101265.00
2022-09-24T16:57:52.854Z,101271.19
2022-09-24T16:59:54.281Z,101277.44
2022-09-24T17:01:55.828Z,101276.56
2022-09-24T17:03:58.783Z,101276.56
2022-09-24T17:06:00.335Z,101276.75
2022-09-24T17:08:01.852Z,101283.00
2022-09-24T17:10:18.375Z,101280.41
2022-09-24T17:12:19.951Z,101286.69
2022-09-24T17:14:21.475Z,101277.13
2022-09-24T17:16:24.788Z,101282.75
2022-09-24T17:18:27.481Z,101289.22
2022-09-24T17:20:29.689Z,101287.63
2022-09-24T17:22:31.175Z,101286.00
2022-09-24T17:24:32.752Z,101281.81
2022-09-24T17:26:34.531Z,101290.81
2022-09-24T17:28:37.073Z,101291.16
2022-09-24T17:30:38.519Z,101286.16
2022-09-24T17:32:39.947Z,101287.19
2022-09-24T17:34:45.644Z,101291.03
2022-09-24T17:36:47.671Z,101301.00
2022-09-24T17:38:49.169Z,101297.66
2022-09-24T17:40:57.042Z,101294.28
2022-09-24T17:42:58.472Z,101296.25
2022-09-24T17:44:59.896Z,101303.50
2022-09-24T17:47:01.498Z,101299.22
2022-09-24T17:49:03.259Z,101301.94
2022-09-24T17:51:19.983Z,101299.38
2022-09-24T17:53:21.439Z,101304.84
2022-09-24T17:55:22.977Z,101304.81
2022-09-24T17:57:25.486Z,101308.47
2022-09-24T17:59:27.297Z,101309.47
2022-09-24T18:01:33.429Z,101313.97
2022-09-24T18:03:35.440Z,101308.81
2022-09-24T18:05:37.834Z,101311.63
2022-09-24T18:07:39.294Z,101311.75
2022-09-24T18:09:40.773Z,101319.69
2022-09-24T18:11:45.238Z,101316.22
2022-09-24T18:13:54.274Z,101319.00
2022-09-24T18:15:55.803Z,101319.97
2022-09-24T18:17:57.612Z,101321.84
2022-09-24T18:19:59.392Z,101322.75
2022-09-24T18:22:00.822Z,101325.41
2022-09-24T18:24:02.789Z,101327.31
2022-09-24T18:26:19.170Z,101325.63
2022-09-24T18:28:20.647Z,101331.88
2022-09-24T18:30:22.126Z,101333.69
2022-09-24T18:32:26.110Z,101323.13
2022-09-24T18:34:27.637Z,101328.41
2022-09-24T18:36:29.418Z,101333.72
2022-09-24T18:38:34.316Z,101330.22
2022-09-24T18:40:35.815Z,101332.94
2022-09-24T18:42:37.329Z,101332.06
2022-09-24T18:44:38.837Z,101331.19
2022-09-24T18:46:40.467Z,101335.63
2022-09-24T18:48:43.638Z,101335.69
2022-09-24T18:50:45.667Z,101338.31
2022-09-24T18:52:47.113Z,101331.38
2022-09-24T18:54:48.775Z,101339.38
2022-09-24T18:56:50.532Z,101336.78
2022-09-24T18:59:09.686Z,101343.88
2022-09-24T19:01:11.559Z,101347.50
2022-09-24T19:03:13.088Z,101343.97
2022-09-24T19:05:14.563Z,101343.97
2022-09-24T19:07:16.038Z,101357.22
2022-09-24T19:09:20.260Z,101347.50
2022-09-24T19:11:22.846Z,101348.47
2022-09-24T19:13:26.504Z,101344.03
2022-09-24T19:15:28.554Z,101353.75
2022-09-24T19:17:30.034Z,101346.72
2022-09-24T19:19:31.704Z,101352.94
2022-09-24T19:21:33.266Z,101359.13
2022-09-24T19:23:46.892Z,101355.53
2022-09-24T19:25:48.344Z,101363.50
2022-09-24T19:27:49.755Z,101360.03
2022-09-24T19:29:53.718Z,101359.00
2022-09-24T19:31:55.189Z,101358.16
2022-09-24T19:33:57.313Z,101363.50
2022-09-24T19:36:04.935Z,101367.06
2022-09-24T19:38:06.372Z,101365.28
2022-09-24T19:40:10.068Z,101369.66
2022-09-24T19:42:11.604Z,101370.59
2022-09-24T19:44:13.687Z,101361.09
2022-09-24T19:46:16.969Z,101364.63
2022-09-24T19:48:18.468Z,101366.09
2022-09-24T19:50:19.943Z,101367.78
2022-09-24T19:52:21.486Z,101366.88
2022-09-24T19:54:23.089Z,101367.69
2022-09-24T19:56:25.442Z,101368.63
2022-09-24T19:58:27.512Z,101375.69
2022-09-24T20:00:28.964Z,101376.75
2022-09-24T20:02:30.511Z,101374.94
2022-09-24T20:04:33.715Z,101373.25
2022-09-24T20:06:38.504Z,101373.97
2022-09-24T20:08:40.188Z,101376.47
2022-09-24T20:10:42.201Z,101374.72
2022-09-24T20:12:46.604Z,101375.56
2022-09-24T20:14:48.029Z,101380.84
2022-09-24T20:16:49.819Z,101383.47
2022-09-24T20:18:55.590Z,101381.72
2022-09-24T20:21:03.447Z,101388.00
2022-09-24T20:23:05.532Z,101381.88
2022-09-24T20:25:07.392Z,101381.00
2022-09-24T20:27:30.008Z,101377.44
2022-09-24T20:29:31.425Z,101381.00
2022-09-24T20:31:33.349Z,101384.53
2022-09-24T20:33:34.866Z,101399.56
2022-09-24T20:35:38.195Z,101398.69
2022-09-24T20:37:39.642Z,101397.97
2022-09-24T20:39:41.057Z,101398.88
2022-09-24T20:41:42.874Z,101400.72
2022-09-24T20:43:45.833Z,101400.88
2022-09-24T20:45:47.352Z,101408.03
2022-09-24T20:47:49.859Z,101405.41
2022-09-24T20:49:51.298Z,101410.75
2022-09-24T20:51:57.350Z,101413.47
2022-09-24T20:53:59.882Z,101410.00
2022-09-24T20:56:02.079Z,101412.75
2022-09-24T20:58:03.568Z,101420.75
2022-09-24T21:00:05.762Z,101410.16
2022-09-24T21:02:07.341Z,101411.06
2022-09-24T21:04:08.916Z,101413.78
2022-09-24T21:06:11.801Z,101413.84
2022-09-24T21:08:16.612Z,101418.34
2022-09-24T21:10:18.721Z,101417.56
2022-09-24T21:12:20.644Z,101414.91
2022-09-24T21:14:22.215Z,101417.56
2022-09-24T21:16:26.640Z,101420.16
2022-09-24T21:18:38.352Z,101421.97
2022-09-24T21:20:42.496Z,101423.72
2022-09-24T21:22:44.016Z,101422.06
2022-09-24T21:24:45.977Z,101425.59
2022-09-24T21:26:47.664Z,101422.94
2022-09-24T21:28:51.872Z,101424.72
2022-09-24T21:30:58.167Z,101419.56
2022-09-24T21:33:00.353Z,101425.72
2022-09-24T21:35:01.882Z,101426.69
2022-09-24T21:37:03.959Z,101430.28
2022-09-24T21:39:08.654Z,101433.81
2022-09-24T21:41:10.155Z,101431.19
2022-09-24T21:43:11.663Z,101431.19
2022-09-24T21:45:13.860Z,101431.38
2022-09-24T21:47:15.308Z,101432.28
2022-09-24T21:49:17.364Z,101426.97
2022-09-24T21:51:22.910Z,101430.50
2022-09-24T21:53:24.367Z,101434.94
2022-09-24T21:55:25.821Z,101438.44
2022-09-24T21:57:27.252Z,101441.09
2022-09-24T21:59:47.237Z,101441.84
2022-09-24T22:01:49.195Z,101448.00
2022-09-24T22:03:56.070Z,101443.56
2022-09-24T22:05:59.586Z,101436.59
2022-09-24T22:08:01.219Z,101434.88
2022-09-24T22:10:02.728Z,101434.97
2022-09-24T22:12:04.568Z,101435.78
2022-09-24T22:14:06.207Z,101442.84
2022-09-24T22:16:13.326Z,101433.09
2022-09-24T22:18:14.812Z,101444.66
2022-09-24T22:20:16.308Z,101439.44
2022-09-24T22:22:17.734Z,101441.34
2022-09-24T22:24:19.200Z,101437.78
2022-09-24T22:26:20.784Z,101441.25
2022-09-24T22:28:24.469Z,101446.56
2022-09-24T22:30:26.024Z,101443.09
2022-09-24T22:32:27.485Z,101446.69
2022-09-24T22:34:47.813Z,101448.50
2022-09-24T22:36:49.282Z,101441.66
2022-09-24T22:38:56.365Z,101433.75
2022-09-24T22:41:02.185Z,101447.91
2022-09-24T22:43:03.616Z,101445.28
2022-09-24T22:45:05.597Z,101439.06
2022-09-24T22:47:07.032Z,101441.66
2022-09-24T22:49:09.216Z,101437.22
2022-09-24T22:51:11.047Z,101441.66
2022-09-24T22:53:12.470Z,101437.31
2022-09-24T22:55:14.596Z,101438.97
2022-09-24T22:57:16.132Z,101446.91
2022-09-24T22:59:17.532Z,101438.91
2022-09-24T23:01:23.047Z,101438.00
2022-09-24T23:03:24.746Z,101437.09
2022-09-24T23:05:26.256Z,101433.50
2022-09-24T23:07:27.772Z,101440.50
2022-09-24T23:09:29.223Z,101440.47
2022-09-24T23:11:33.095Z,101445.69
2022-09-24T23:13:35.326Z,101433.34
2022-09-24T23:15:36.848Z,101430.75
2022-09-24T23:17:38.349Z,101430.78
2022-09-24T23:19:48.660Z,101436.09
2022-09-24T23:21:50.105Z,101439.59
2022-09-24T23:23:59.937Z,101429.97
2022-09-24T23:26:08.081Z,101437.97
2022-09-24T23:28:09.509Z,101438.91
2022-09-24T23:30:11.209Z,101431.06
2022-09-24T23:32:14.307Z,101431.06
2022-09-24T23:34:15.749Z,101424.03
2022-09-24T23:36:18.103Z,101427.56
2022-09-24T23:38:19.738Z,101428.50
2022-09-24T23:40:21.255Z,101428.53
2022-09-24T23:42:23.636Z,101436.47
2022-09-24T23:44:25.101Z,101434.69
2022-09-24T23:46:27.434Z,101436.47
2022-09-24T23:48:29.691Z,101438.28
2022-09-24T23:50:31.140Z,101432.13
2022-09-24T23:52:32.610Z,101429.47
2022-09-24T23:54:36.437Z,101434.69
2022-09-24T23:56:38.108Z,101438.16
2022-09-24T23:58:41.989Z,101434.66
